Time;durP1;ratioP1;P1;durP2;ratioP2;P2;SDS_P1;SDS_P2;PMS_P1;PMS_P2;Temp;Humidity;BMP_temperature;BMP_pressure;BME280_temperature;BME280_humidity;BME280_pressure;Samples;Min_cycle;Max_cycle;Signal;HPM_P1;HPM_P2
2021/11/15 00:02:17;;;;;;;;;;;;;;;1.60;68.77;102001.45;1861623;77;20149;-60
2021/11/15 00:04:45;;;;;;;;;;;;;;;1.58;68.70;102003.14;1861591;77;20193;-60
2021/11/15 00:07:12;;;;;;;;;;;;;;;1.50;69.11;101999.98;1861618;77;20225;-60
2021/11/15 00:09:42;;;;;;;;;;;;;;;1.46;69.20;102007.27;1861719;77;20123;-60
2021/11/15 00:12:11;;;;;;;;;;;;;;;1.45;69.11;102009.39;1861562;77;20361;-60
2021/11/15 00:14:39;;;;;;;;;;;;;;;1.43;69.00;102002.01;1861604;77;20146;-60
2021/11/15 00:17:07;;;;;;;;;;;;;;;1.41;68.98;102006.30;1861645;77;20126;-60
2021/11/15 00:19:35;;;;;;;;;;;;;;;1.42;68.91;102002.87;1861613;77;20172;-61
2021/11/15 00:22:04;;;;;;;;;;;;;;;1.42;68.88;102005.47;1861600;77;20122;-60
2021/11/15 00:24:32;;;;;;;;;;;;;;;1.40;68.89;102003.23;1861551;77;20145;-61
2021/11/15 00:27:00;;;;;;;;;;;;;;;1.38;68.97;102003.63;1864977;75;20161;-60
2021/11/15 00:29:28;;;;;;;;;;;;;;;1.38;68.95;102010.13;1833240;78;20147;-61
2021/11/15 00:31:56;;;;;;;;;;;;;;;1.38;68.92;102001.03;1833187;78;20159;-60
2021/11/15 00:34:23;;;;;;;;;;;;;;;1.38;68.86;102003.63;1833266;78;20120;-61
2021/11/15 00:36:51;;;;;;;;;;;;;;;1.36;68.85;102007.92;1833212;78;20199;-61
2021/11/15 00:39:19;;;;;;;;;;;;;;;1.34;68.86;102005.73;1833238;78;20179;-60
2021/11/15 00:41:47;;;;;;;;;;;;;;;1.32;68.85;102008.28;1833287;78;20124;-61
2021/11/15 00:44:15;;;;;;;;;;;;;;;1.33;68.82;102009.19;1833240;78;20155;-61
2021/11/15 00:46:43;;;;;;;;;;;;;;;1.32;68.79;102001.80;1867920;77;20122;-61
2021/11/15 00:49:11;;;;;;;;;;;;;;;1.31;68.75;102005.25;1833146;78;20108;-60
2021/11/15 00:51:38;;;;;;;;;;;;;;;1.29;68.73;101999.56;1833184;78;20156;-61
2021/11/15 00:54:06;;;;;;;;;;;;;;;1.28;68.73;101999.13;1833235;78;20121;-61
2021/11/15 00:56:34;;;;;;;;;;;;;;;1.27;68.76;101996.97;1833221;77;20128;-60
2021/11/15 00:59:02;;;;;;;;;;;;;;;1.26;68.71;101995.63;1833201;78;20120;-60
2021/11/15 01:01:30;;;;;;;;;;;;;;;1.23;68.77;101990.38;1833258;78;20128;-60
2021/11/15 01:03:58;;;;;;;;;;;;;;;1.22;68.78;101998.98;1833220;78;20122;-60
2021/11/15 01:06:26;;;;;;;;;;;;;;;1.20;68.81;101991.20;1833327;78;20410;-60
2021/11/15 01:08:54;;;;;;;;;;;;;;;1.18;68.79;101991.99;1833245;78;20121;-61
2021/11/15 01:11:22;;;;;;;;;;;;;;;1.15;68.79;101987.20;1833236;78;20125;-61
2021/11/15 01:13:50;;;;;;;;;;;;;;;1.14;68.77;101988.06;1833223;78;20104;-61
2021/11/15 01:16:18;;;;;;;;;;;;;;;1.12;68.71;101988.43;1833217;78;20125;-60
2021/11/15 01:18:48;;;;;;;;;;;;;;;1.10;68.75;101984.06;1833165;78;20121;-60
2021/11/15 01:21:16;;;;;;;;;;;;;;;1.06;68.86;101983.56;1833382;78;20210;-60
2021/11/15 01:23:45;;;;;;;;;;;;;;;1.03;69.14;101982.19;1833249;78;20383;-61
2021/11/15 01:26:13;;;;;;;;;;;;;;;1.00;69.63;101984.31;1833144;78;20113;-60
2021/11/15 01:28:40;;;;;;;;;;;;;;;0.96;69.41;101978.19;1826904;77;20147;-61
2021/11/15 01:31:08;;;;;;;;;;;;;;;0.95;69.32;101976.85;1826738;79;20160;-62
2021/11/15 01:33:36;;;;;;;;;;;;;;;0.92;69.37;101979.37;1826829;79;20238;-60
2021/11/15 01:36:04;;;;;;;;;;;;;;;0.92;69.36;101989.75;1826810;79;20125;-60
2021/11/15 01:38:33;;;;;;;;;;;;;;;0.90;69.30;101991.01;1826841;79;20124;-60
2021/11/15 01:41:02;;;;;;;;;;;;;;;0.90;69.21;101986.25;1826815;79;20148;-60
2021/11/15 01:43:29;;;;;;;;;;;;;;;0.89;69.19;101983.22;1827095;79;20125;-61
2021/11/15 01:45:57;;;;;;;;;;;;;;;0.89;69.14;101993.59;1826782;79;20152;-60
2021/11/15 01:48:25;;;;;;;;;;;;;;;0.88;69.07;101995.72;1826789;79;20168;-61
2021/11/15 01:50:53;;;;;;;;;;;;;;;0.86;69.05;102000.00;1826840;79;20121;-60
2021/11/15 01:53:21;;;;;;;;;;;;;;;0.83;69.01;102001.22;1826784;79;20152;-60
2021/11/15 01:55:49;;;;;;;;;;;;;;;0.81;69.00;101996.00;1826851;79;20109;-61
2021/11/15 01:58:17;;;;;;;;;;;;;;;0.80;69.09;102002.48;1826781;79;20121;-62
2021/11/15 02:00:47;;;;;;;;;;;;;;;0.77;69.10;102008.45;1826802;79;20171;-60
2021/11/15 02:03:15;;;;;;;;;;;;;;;0.73;69.04;102015.28;1861553;77;20598;-61
2021/11/15 02:05:44;;;;;;;;;;;;;;;0.72;69.06;102020.44;1861561;77;20122;-61
2021/11/15 02:08:12;;;;;;;;;;;;;;;0.70;69.07;102016.94;1826812;79;20105;-61
2021/11/15 02:10:40;;;;;;;;;;;;;;;0.68;69.04;102023.41;1826778;79;20167;-61
2021/11/15 02:13:08;;;;;;;;;;;;;;;0.68;69.09;102020.81;1861479;77;20119;-61
2021/11/15 02:15:36;;;;;;;;;;;;;;;0.68;69.35;102016.93;1861592;76;20179;-62
2021/11/15 02:18:05;;;;;;;;;;;;;;;0.68;70.10;102009.15;1861559;77;20114;-61
2021/11/15 02:20:49;;;;;;;;;;;;;;;0.70;70.09;102013.05;1861574;77;20118;-61
2021/11/15 02:23:18;;;;;;;;;;;;;;;0.69;69.91;102016.06;1861492;77;20149;-63
2021/11/15 02:25:46;;;;;;;;;;;;;;;0.68;70.03;102016.93;1861768;77;20165;-61
2021/11/15 02:28:15;;;;;;;;;;;;;;;0.61;70.74;102020.22;1866661;77;20114;-61
2021/11/15 02:30:43;;;;;;;;;;;;;;;0.59;71.47;102023.20;1836478;78;20167;-62
2021/11/15 02:33:11;;;;;;;;;;;;;;;0.61;71.30;102011.55;1836372;77;20121;-61
2021/11/15 02:35:39;;;;;;;;;;;;;;;0.63;71.59;102011.16;1836389;78;20163;-61
2021/11/15 02:38:08;;;;;;;;;;;;;;;0.63;71.29;102019.83;1836469;78;20212;-61
2021/11/15 02:40:35;;;;;;;;;;;;;;;0.62;71.02;102023.25;1836630;78;20553;-61
2021/11/15 02:43:03;;;;;;;;;;;;;;;0.62;70.87;102025.84;1836520;78;20124;-61
2021/11/15 02:45:31;;;;;;;;;;;;;;;0.62;70.79;102020.66;1836409;78;20120;-61
2021/11/15 02:47:59;;;;;;;;;;;;;;;0.65;70.70;102016.84;1836395;78;20112;-61
2021/11/15 02:50:28;;;;;;;;;;;;;;;0.67;70.55;102020.34;1836288;78;20157;-61
2021/11/15 02:52:57;;;;;;;;;;;;;;;0.70;70.42;102019.52;1836407;78;20180;-61
2021/11/15 02:55:27;;;;;;;;;;;;;;;0.73;70.39;102026.09;1871196;77;20175;-61
2021/11/15 02:57:55;;;;;;;;;;;;;;;0.78;70.43;102023.61;1836405;78;20112;-60
2021/11/15 03:00:26;;;;;;;;;;;;;;;0.84;70.33;102027.63;1871181;76;20118;-61
2021/11/15 03:02:54;;;;;;;;;;;;;;;0.89;70.37;102032.50;1836340;78;20140;-61
2021/11/15 03:05:23;;;;;;;;;;;;;;;0.96;70.46;102025.30;1836388;78;20147;-61
2021/11/15 03:07:51;;;;;;;;;;;;;;;1.01;70.55;102031.44;1836368;78;20387;-61
2021/11/15 03:10:19;;;;;;;;;;;;;;;1.08;70.58;102032.02;1836335;78;20124;-61
2021/11/15 03:12:47;;;;;;;;;;;;;;;1.14;70.54;102025.69;1836388;78;20109;-61
2021/11/15 03:15:23;;;;;;;;;;;;;;;1.21;70.53;102021.47;1836368;78;20155;-61
2021/11/15 03:17:53;;;;;;;;;;;;;;;1.25;70.60;102020.69;1836449;78;20152;-60
2021/11/15 03:20:21;;;;;;;;;;;;;;;1.30;70.42;102018.20;1870823;77;20110;-61
2021/11/15 03:22:48;;;;;;;;;;;;;;;1.33;70.40;102015.67;1836490;78;20121;-61
2021/11/15 03:25:17;;;;;;;;;;;;;;;1.33;70.58;102020.86;1836391;77;20203;-61
2021/11/15 03:27:44;;;;;;;;;;;;;;;1.34;70.55;102025.19;1835276;77;20120;-61
2021/11/15 03:30:12;;;;;;;;;;;;;;;1.31;70.81;102022.52;1826404;79;20267;-60
2021/11/15 03:32:41;;;;;;;;;;;;;;;1.31;71.02;102025.12;1826546;79;20168;-61
2021/11/15 03:35:10;;;;;;;;;;;;;;;1.30;71.26;102028.58;1863987;77;20181;-61
2021/11/15 03:37:39;;;;;;;;;;;;;;;1.32;71.16;102026.88;1826588;78;20117;-61
2021/11/15 03:40:08;;;;;;;;;;;;;;;1.35;71.28;102024.36;1864128;77;20181;-61
2021/11/15 03:42:38;;;;;;;;;;;;;;;1.34;71.23;102022.59;1855451;77;20225;-62
2021/11/15 03:45:06;;;;;;;;;;;;;;;1.36;71.57;102020.90;1826590;79;20387;-62
2021/11/15 03:47:33;;;;;;;;;;;;;;;1.43;71.33;102026.66;1864011;77;20123;-62
2021/11/15 03:50:02;;;;;;;;;;;;;;;1.49;71.29;102025.47;1826576;79;20148;-62
2021/11/15 03:52:30;;;;;;;;;;;;;;;1.54;71.18;102024.28;1864025;77;20110;-62
2021/11/15 03:54:58;;;;;;;;;;;;;;;1.62;71.03;102015.33;1826538;79;20117;-62
2021/11/15 03:57:25;;;;;;;;;;;;;;;1.64;71.09;102016.23;1864052;77;20118;-61
2021/11/15 03:59:53;;;;;;;;;;;;;;;1.64;71.31;102014.93;1826591;78;20117;-61
2021/11/15 04:02:24;;;;;;;;;;;;;;;1.64;71.45;102021.42;1864035;77;20152;-62
2021/11/15 04:04:52;;;;;;;;;;;;;;;1.71;71.26;102016.36;1826496;79;20121;-61
2021/11/15 04:07:49;;;;;;;;;;;;;;;1.80;71.10;102019.55;1864021;77;20385;-61
2021/11/15 04:09:50;;;;;;;;;;;;;;;1.86;71.02;102020.98;1859212;77;20237;-61
2021/11/15 04:12:18;;;;;;;;;;;;;;;1.90;71.07;102020.18;1826565;79;20438;-62
2021/11/15 04:14:46;;;;;;;;;;;;;;;1.97;70.99;102018.54;1863989;77;20174;-62
2021/11/15 04:17:14;;;;;;;;;;;;;;;2.05;70.93;102013.50;1826600;79;20125;-62
2021/11/15 04:19:42;;;;;;;;;;;;;;;2.07;71.11;102015.26;1864026;77;20149;-61
2021/11/15 04:22:10;;;;;;;;;;;;;;;2.08;71.20;102021.33;1826520;79;20124;-62
2021/11/15 04:24:38;;;;;;;;;;;;;;;2.11;71.11;102014.89;1864022;77;20151;-61
2021/11/15 04:27:06;;;;;;;;;;;;;;;2.15;70.94;102014.08;1826619;79;20152;-62
2021/11/15 04:29:35;;;;;;;;;;;;;;;2.21;70.84;102012.87;1826672;78;20121;-62
2021/11/15 04:32:04;;;;;;;;;;;;;;;2.24;70.79;102018.12;1826982;79;20157;-61
2021/11/15 04:34:32;;;;;;;;;;;;;;;2.25;70.87;102013.39;1826878;79;20121;-62
2021/11/15 04:37:00;;;;;;;;;;;;;;;2.28;70.98;102007.36;1826812;79;20195;-61
2021/11/15 04:39:28;;;;;;;;;;;;;;;2.32;71.03;102005.24;1826895;79;20125;-61
2021/11/15 04:41:56;;;;;;;;;;;;;;;2.34;71.14;102010.47;1826869;79;20153;-60
2021/11/15 04:44:24;;;;;;;;;;;;;;;2.29;71.20;102011.28;1827119;79;20153;-60
2021/11/15 04:46:52;;;;;;;;;;;;;;;2.26;71.47;101995.63;1826796;79;20133;-60
2021/11/15 04:49:19;;;;;;;;;;;;;;;2.26;71.38;101993.03;1826781;79;20120;-60
2021/11/15 04:51:47;;;;;;;;;;;;;;;2.29;71.40;101999.59;1826903;79;20148;-61
2021/11/15 04:54:15;;;;;;;;;;;;;;;2.31;71.62;102015.20;1826893;79;20117;-59
2021/11/15 04:56:43;;;;;;;;;;;;;;;2.31;71.70;102023.88;1826869;79;20196;-60
2021/11/15 04:59:11;;;;;;;;;;;;;;;2.34;71.72;102015.67;1826903;79;20501;-60
2021/11/15 05:01:39;;;;;;;;;;;;;;;2.41;71.68;102010.58;1826853;79;20129;-61
2021/11/15 05:04:07;;;;;;;;;;;;;;;2.50;71.70;102016.35;1826817;79;20190;-60
2021/11/15 05:06:35;;;;;;;;;;;;;;;2.54;71.63;102010.77;1826897;79;20113;-60
2021/11/15 05:09:03;;;;;;;;;;;;;;;2.50;72.01;102017.65;1826877;79;20160;-60
2021/11/15 05:11:31;;;;;;;;;;;;;;;2.49;72.02;102018.48;1826829;79;20125;-60
2021/11/15 05:13:59;;;;;;;;;;;;;;;2.56;71.85;102028.56;1826873;79;20160;-60
2021/11/15 05:16:27;;;;;;;;;;;;;;;2.59;71.87;102030.78;1826787;77;20168;-60
2021/11/15 05:18:54;;;;;;;;;;;;;;;2.61;72.00;102034.28;1826887;79;20121;-60
2021/11/15 05:21:22;;;;;;;;;;;;;;;2.63;71.90;102027.38;1826846;79;20152;-60
2021/11/15 05:23:52;;;;;;;;;;;;;;;2.64;71.88;102031.73;1826822;79;20121;-60
2021/11/15 05:26:20;;;;;;;;;;;;;;;2.67;71.89;102036.98;1826854;77;20146;-60
2021/11/15 05:28:48;;;;;;;;;;;;;;;2.63;72.23;102039.08;1826715;77;20156;-60
2021/11/15 05:31:16;;;;;;;;;;;;;;;2.60;72.47;102037.75;1826821;79;20188;-59
2021/11/15 05:33:44;;;;;;;;;;;;;;;2.67;72.61;102034.39;1826831;79;20148;-60
2021/11/15 05:36:12;;;;;;;;;;;;;;;2.77;72.38;102031.92;1826860;79;20125;-60
2021/11/15 05:38:40;;;;;;;;;;;;;;;2.81;72.33;102033.70;1826841;79;20121;-60
2021/11/15 05:41:08;;;;;;;;;;;;;;;2.87;72.21;102037.23;1826823;79;20160;-60
2021/11/15 05:43:35;;;;;;;;;;;;;;;2.97;72.04;102046.06;1826743;79;20121;-60
2021/11/15 05:46:03;;;;;;;;;;;;;;;3.03;72.08;102044.84;1826854;79;20124;-59
2021/11/15 05:48:31;;;;;;;;;;;;;;;3.12;71.84;102041.89;1826948;79;20120;-60
2021/11/15 05:50:59;;;;;;;;;;;;;;;3.19;71.70;102043.72;1826853;77;20129;-61
2021/11/15 05:53:27;;;;;;;;;;;;;;;3.26;71.56;102055.55;1826943;79;20176;-62
2021/11/15 05:55:55;;;;;;;;;;;;;;;3.34;71.50;102062.15;1826787;79;20160;-61
2021/11/15 05:58:23;;;;;;;;;;;;;;;3.41;71.48;102071.78;1826822;79;20148;-60
2021/11/15 06:00:51;;;;;;;;;;;;;;;3.46;71.38;102071.39;1826827;79;20109;-60
2021/11/15 06:03:20;;;;;;;;;;;;;;;3.46;71.56;102075.29;1826821;79;20152;-61
2021/11/15 06:05:48;;;;;;;;;;;;;;;3.50;71.48;102066.22;1826843;79;20160;-60
2021/11/15 06:08:16;;;;;;;;;;;;;;;3.57;71.38;102074.55;1826842;79;20125;-60
2021/11/15 06:10:44;;;;;;;;;;;;;;;3.63;71.29;102080.72;1826743;79;20191;-60
2021/11/15 06:13:12;;;;;;;;;;;;;;;3.66;71.16;102086.38;1826810;79;20125;-60
2021/11/15 06:15:40;;;;;;;;;;;;;;;3.68;71.12;102088.56;1826849;79;20407;-61
2021/11/15 06:18:07;;;;;;;;;;;;;;;3.69;71.21;102086.42;1826885;79;20203;-60
2021/11/15 06:20:35;;;;;;;;;;;;;;;3.75;71.22;102090.39;1826852;79;20117;-60
2021/11/15 06:23:03;;;;;;;;;;;;;;;3.75;71.33;102095.59;1826777;77;20121;-61
2021/11/15 06:25:34;;;;;;;;;;;;;;;3.74;71.58;102090.37;1826816;79;20121;-60
2021/11/15 06:28:01;;;;;;;;;;;;;;;3.74;71.35;102088.63;1826866;79;20147;-60
2021/11/15 06:30:29;;;;;;;;;;;;;;;3.77;71.27;102095.63;1829919;78;20108;-60
2021/11/15 06:32:56;;;;;;;;;;;;;;;3.77;71.41;102099.09;1833259;78;20129;-60
2021/11/15 06:35:27;;;;;;;;;;;;;;;3.73;71.49;102101.66;1833156;77;20402;-61
2021/11/15 06:37:54;;;;;;;;;;;;;;;3.78;71.50;102104.76;1833102;78;20159;-60
2021/11/15 06:40:22;;;;;;;;;;;;;;;3.82;71.33;102110.44;1833252;78;20116;-60
2021/11/15 06:42:50;;;;;;;;;;;;;;;3.84;71.42;102109.16;1833168;78;20120;-61
2021/11/15 06:45:20;;;;;;;;;;;;;;;3.88;71.43;102112.67;1819071;77;20125;-60
2021/11/15 06:47:48;;;;;;;;;;;;;;;3.94;71.32;102114.03;1821651;79;20379;-60
2021/11/15 06:50:21;;;;;;;;;;;;;;;3.97;71.20;102118.84;1786272;80;20140;-60
2021/11/15 06:52:49;;;;;;;;;;;;;;;3.99;71.23;102117.56;1821611;79;20143;-60
2021/11/15 06:55:18;;;;;;;;;;;;;;;4.02;71.32;102128.00;1786376;80;20148;-60
2021/11/15 06:57:47;;;;;;;;;;;;;;;4.06;71.39;102118.08;1821621;79;20371;-61
2021/11/15 07:00:21;;;;;;;;;;;;;;;4.12;71.37;102127.25;1786390;80;20234;-61
2021/11/15 07:02:52;;;;;;;;;;;;;;;4.14;71.27;102124.67;1821567;79;20121;-60
2021/11/15 07:05:21;;;;;;;;;;;;;;;4.08;71.32;102129.39;1786346;80;20419;-60
2021/11/15 07:07:55;;;;;;;;;;;;;;;4.08;71.30;102137.62;1821616;79;20403;-60
2021/11/15 07:10:20;;;;;;;;;;;;;;;4.03;71.39;102144.10;1824381;77;20109;-60
2021/11/15 07:12:48;;;;;;;;;;;;;;;4.02;71.39;102153.66;1790534;80;20127;-60
2021/11/15 07:15:16;;;;;;;;;;;;;;;4.00;71.51;102159.70;1821548;79;20125;-61
2021/11/15 07:17:46;;;;;;;;;;;;;;;3.98;71.55;102159.67;1786418;80;20204;-60
2021/11/15 07:20:14;;;;;;;;;;;;;;;3.96;71.46;102154.02;1821532;79;20152;-60
2021/11/15 07:22:44;;;;;;;;;;;;;;;3.90;71.64;102160.03;1786349;80;20140;-60
2021/11/15 07:51:30;;;;;;;52.13;13.45;;;;;;;4.67;72.68;102175.55;1973848;73;22190;-60
2021/11/15 07:53:59;;;;;;;36.40;13.70;;;;;;;4.67;72.37;102176.85;1949037;73;21117;-60
2021/11/15 07:56:28;;;;;;;36.80;10.82;;;;;;;4.67;72.23;102184.67;1948969;73;21118;-60
2021/11/15 07:58:56;;;;;;;52.20;13.10;;;;;;;4.61;72.03;102185.09;1949062;73;21028;-60
2021/11/15 08:01:25;;;;;;;40.00;13.93;;;;;;;4.57;72.08;102180.69;1949053;73;21551;-60
2021/11/15 08:03:54;;;;;;;37.28;12.58;;;;;;;4.52;71.93;102183.70;1949016;73;21024;-60
2021/11/15 08:06:22;;;;;;;42.88;13.55;;;;;;;4.47;71.79;102180.61;1949074;73;21043;-60
2021/11/15 08:08:51;;;;;;;73.12;14.98;;;;;;;4.49;71.62;102181.50;1948939;73;21102;-61
2021/11/15 08:11:20;;;;;;;47.13;16.70;;;;;;;4.50;71.56;102178.02;1948933;73;21047;-60
2021/11/15 08:13:49;;;;;;;68.85;19.00;;;;;;;4.49;71.57;102182.36;1949010;73;21056;-60
2021/11/15 08:16:18;;;;;;;41.75;14.98;;;;;;;4.53;71.68;102180.22;1948994;73;20992;-60
2021/11/15 08:18:46;;;;;;;48.55;16.07;;;;;;;4.52;71.60;102178.49;1949169;73;21114;-60
2021/11/15 08:21:18;;;;;;;58.42;16.62;;;;;;;4.60;71.53;102175.50;1949089;73;21109;-60
2021/11/15 08:23:50;;;;;;;60.45;17.77;;;;;;;4.61;71.87;102177.67;1949136;73;21028;-60
2021/11/15 08:26:28;;;;;;;62.65;19.32;;;;;;;4.78;71.77;102190.89;1949176;73;21120;-60
2021/11/15 08:29:05;;;;;;;48.25;16.73;;;;;;;4.90;71.43;102197.48;1949025;73;21028;-60
2021/11/15 08:31:35;;;;;;;55.90;18.02;;;;;;;4.97;71.21;102194.06;1947240;73;21035;-60
2021/11/15 08:34:05;;;;;;;40.73;14.95;;;;;;;5.01;71.05;102189.30;1949153;73;21093;-61
2021/11/15 08:36:34;;;;;;;49.70;17.42;;;;;;;5.13;70.88;102194.20;1949102;73;21036;-60
2021/11/15 08:39:05;;;;;;;48.87;17.57;;;;;;;5.18;70.67;102197.69;1949138;73;21087;-60
2021/11/15 08:41:37;;;;;;;56.37;17.65;;;;;;;5.19;70.65;102202.06;1948974;73;21055;-60
2021/11/15 08:44:10;;;;;;;45.90;16.50;;;;;;;5.15;70.67;102202.91;1948955;73;21102;-61
2021/11/15 08:46:40;;;;;;;62.78;23.77;;;;;;;5.06;70.76;102214.59;1949031;73;21469;-60
2021/11/15 08:49:11;;;;;;;47.13;18.48;;;;;;;4.95;70.96;102216.67;1949078;73;21040;-60
2021/11/15 08:51:41;;;;;;;36.65;15.65;;;;;;;4.84;71.18;102210.50;1939131;73;21060;-60
2021/11/15 08:54:16;;;;;;;31.48;13.10;;;;;;;4.78;71.39;102207.85;1936277;74;21058;-60
2021/11/15 08:56:47;;;;;;;42.50;13.50;;;;;;;4.74;71.44;102209.97;1936112;74;21498;-61
2021/11/15 08:59:16;;;;;;;41.40;13.65;;;;;;;4.72;71.36;102209.98;1934895;74;21028;-60
2021/11/15 09:01:45;;;;;;;40.28;15.90;;;;;;;4.64;71.38;102199.45;1935906;74;21482;-61
2021/11/15 09:04:15;;;;;;;33.30;13.62;;;;;;;4.64;71.49;102199.45;1935585;74;21028;-60
2021/11/15 09:06:44;;;;;;;36.58;14.15;;;;;;;4.65;71.62;102191.22;1935592;74;21467;-60
2021/11/15 09:09:15;;;;;;;33.48;11.63;;;;;;;4.69;71.79;102182.98;1935591;74;21451;-61
2021/11/15 09:11:47;;;;;;;31.70;12.18;;;;;;;4.91;71.71;102185.34;1935682;74;21474;-60
2021/11/15 09:14:17;;;;;;;29.02;11.90;;;;;;;5.10;71.48;102178.50;1935674;74;21195;-60
2021/11/15 09:16:47;;;;;;;27.82;11.00;;;;;;;5.21;71.19;102184.66;1935674;74;21009;-61
2021/11/15 09:19:18;;;;;;;27.45;10.38;;;;;;;5.28;70.95;102188.20;1935602;74;21427;-62
2021/11/15 09:21:54;;;;;;;30.10;11.83;;;;;;;5.28;70.76;102186.45;1935555;74;21028;-63
2021/11/15 09:24:19;;;;;;;30.92;12.88;;;;;;;5.40;70.61;102187.84;1933871;74;21037;-62
2021/11/15 09:26:48;;;;;;;34.43;12.85;;;;;;;5.54;70.43;102194.42;1935606;74;21455;-62
2021/11/15 09:29:19;;;;;;;41.80;18.65;;;;;;;5.67;70.35;102188.83;1935638;74;21044;-62
2021/11/15 09:31:48;;;;;;;26.27;11.83;;;;;;;5.84;70.29;102181.49;1935603;74;21426;-62
2021/11/15 09:34:17;;;;;;;25.52;10.98;;;;;;;6.02;70.20;102171.12;1935516;74;21023;-62
2021/11/15 09:36:46;;;;;;;33.05;14.50;;;;;;;6.20;70.00;102167.69;1935622;74;21506;-62
2021/11/15 09:39:15;;;;;;;41.28;19.75;;;;;;;6.21;69.68;102172.48;1935649;74;21064;-62
2021/11/15 09:41:45;;;;;;;35.30;15.63;;;;;;;6.23;69.60;102172.91;1935619;74;21110;-62
2021/11/15 09:44:15;;;;;;;43.60;17.15;;;;;;;6.25;69.42;102178.15;1935615;74;21024;-62
2021/11/15 09:46:46;;;;;;;40.03;15.05;;;;;;;6.21;69.33;102179.02;1935633;74;21028;-62
2021/11/15 09:49:15;;;;;;;43.40;17.60;;;;;;;6.20;69.21;102186.00;1935607;74;21021;-62
2021/11/15 09:51:49;;;;;;;39.65;17.85;;;;;;;6.16;69.06;102178.99;1941807;74;21076;-62
2021/11/15 09:54:18;;;;;;;;;;;;;;;6.09;69.06;102172.03;1951539;73;21091;-62
2021/11/15 09:56:48;;;;;;;47.43;19.10;;;;;;;6.08;69.15;102172.88;1948718;74;20124;-61
2021/11/15 09:59:18;;;;;;;41.15;17.60;;;;;;;6.05;69.35;102176.79;1948679;74;21024;-63
2021/11/15 10:01:49;;;;;;;39.35;17.52;;;;;;;6.08;69.53;102173.75;1948756;74;21015;-62
2021/11/15 10:04:19;;;;;;;46.68;18.30;;;;;;;6.14;69.62;102180.33;1948594;74;21109;-61
2021/11/15 10:06:49;;;;;;;42.48;16.37;;;;;;;6.22;69.58;102175.55;1948638;74;21541;-62
2021/11/15 10:09:26;;;;;;;36.15;16.12;;;;;;;6.31;69.47;102165.10;1948647;74;21470;-62
2021/11/15 10:11:57;;;;;;;41.28;18.15;;;;;;;6.40;69.21;102170.34;1948023;74;21521;-62
2021/11/15 10:14:26;;;;;;;37.67;15.18;;;;;;;6.51;68.97;102163.38;1948673;73;21035;-62
2021/11/15 10:16:59;;;;;;;40.63;18.62;;;;;;;6.71;68.68;102158.56;1948650;74;21004;-62
2021/11/15 10:19:30;;;;;;;39.48;17.10;;;;;;;6.83;68.22;102150.71;1948769;73;21004;-62
2021/11/15 10:22:04;;;;;;;40.85;15.25;;;;;;;7.43;67.26;102152.32;1948661;74;21004;-61
2021/11/15 10:24:42;;;;;;;33.78;14.55;;;;;;;7.85;66.26;102153.02;1948552;74;21153;-61
2021/11/15 10:27:18;;;;;;;35.88;15.93;;;;;;;8.23;65.31;102150.62;1948668;74;21082;-61
2021/11/15 10:29:53;;;;;;;34.27;15.05;;;;;;;8.40;64.75;102143.49;1948658;74;21023;-61
2021/11/15 10:32:29;;;;;;;34.18;16.23;;;;;;;8.91;63.36;102140.90;1947795;74;21067;-61
2021/11/15 10:34:54;;;;;;;30.37;12.25;;;;;;;9.16;62.96;102136.28;1946723;74;21031;-62
2021/11/15 10:37:28;;;;;;;30.85;13.65;;;;;;;9.28;62.87;102139.64;1948667;74;21032;-62
2021/11/15 10:40:00;;;;;;;29.57;13.50;;;;;;;9.39;62.38;102137.34;1948637;74;21422;-61
2021/11/15 10:42:46;;;;;;;31.27;13.13;;;;;;;9.29;62.62;102132.62;1910904;75;21130;-62
2021/11/15 10:45:18;;;;;;;29.02;14.10;;;;;;;9.43;62.43;102127.22;1921263;75;21059;-62
2021/11/15 10:47:52;;;;;;;30.05;14.58;;;;;;;10.67;59.72;102125.86;1921391;75;21039;-61
2021/11/15 10:50:27;;;;;;;29.02;13.98;;;;;;;11.89;57.13;102129.59;1911493;75;21501;-61
2021/11/15 10:53:07;;;;;;;31.25;14.20;;;;;;;12.01;56.73;102124.97;1921404;75;21082;-61
2021/11/15 10:55:40;;;;;;;31.20;14.70;;;;;;;11.39;57.86;102132.87;1921256;75;21106;-62
2021/11/15 10:58:23;;;;;;;35.50;15.18;;;;;;;10.95;58.69;102135.91;1921609;75;21105;-61
2021/11/15 11:00:59;;;;;;;25.88;12.88;;;;;;;10.56;59.28;102144.47;1921474;75;21038;-61
2021/11/15 11:03:30;;;;;;;29.50;13.05;;;;;;;10.50;59.10;102131.87;1921347;75;21122;-61
2021/11/15 11:06:01;;;;;;;26.40;12.68;;;;;;;10.93;58.04;102141.66;1921305;75;21094;-63
2021/11/15 11:08:32;;;;;;;34.27;13.98;;;;;;;10.87;58.02;102143.09;1921197;75;21586;-62
2021/11/15 11:11:11;;;;;;;27.73;12.63;;;;;;;10.82;58.16;102147.97;1920450;75;21493;-62
2021/11/15 11:13:47;;;;;;;29.55;13.83;;;;;;;10.76;58.04;102154.68;1921375;75;21112;-62
2021/11/15 11:16:17;;;;;;;27.98;12.73;;;;;;;10.70;58.03;102156.11;1921499;75;21171;-62
2021/11/15 11:19:03;;;;;;;24.20;12.45;;;;;;;10.74;57.81;102163.06;1921269;75;21609;-62
2021/11/15 11:24:35;;;;;;;29.85;12.63;;;;;;;10.56;57.93;102160.73;1921344;75;21011;-61
2021/11/15 11:26:56;;;;;;;25.45;11.15;;;;;;;10.74;57.81;102153.84;1918532;75;21120;-63
2021/11/15 11:29:28;;;;;;;25.85;10.45;;;;;;;11.19;56.69;102167.11;1921491;75;21477;-62
2021/11/15 11:32:00;;;;;;;23.95;11.25;;;;;;;11.19;56.69;102167.11;1921323;75;21155;-62
2021/11/15 11:34:29;;;;;;;26.07;10.93;;;;;;;11.34;56.59;102159.34;1921471;75;21508;-62
2021/11/15 11:37:02;;;;;;;24.92;11.18;;;;;;;11.44;56.27;102156.06;1921558;75;21055;-62
2021/11/15 11:39:31;;;;;;;;;;;;;;;11.71;55.88;102159.02;1923208;75;21035;-62
2021/11/15 11:42:00;;;;;;;20.92;10.72;;;;;;;11.80;56.00;102149.59;1914555;74;20122;-61
2021/11/15 11:44:30;;;;;;;20.15;9.45;;;;;;;11.89;55.86;102161.27;1904925;75;21109;-61
2021/11/15 11:47:01;;;;;;;22.50;9.35;;;;;;;11.80;55.89;102158.83;1904832;75;21473;-61
2021/11/15 11:49:32;;;;;;;29.72;11.43;;;;;;;11.82;55.98;102151.74;1904981;75;21036;-61
2021/11/15 11:52:04;;;;;;;23.87;10.80;;;;;;;11.93;55.77;102155.08;1904830;75;21101;-62
2021/11/15 11:54:39;;;;;;;24.65;11.80;;;;;;;12.10;55.39;102149.41;1904939;75;21551;-61
2021/11/15 11:57:13;;;;;;;24.65;11.75;;;;;;;11.81;55.69;102144.75;1904955;75;21474;-61
2021/11/15 11:59:53;;;;;;;20.10;10.60;;;;;;;11.26;56.94;102144.56;1904844;75;21036;-62
2021/11/15 12:02:25;;;;;;;24.00;9.78;;;;;;;10.65;58.12;102141.28;1904728;75;21522;-62
2021/11/15 12:05:03;;;;;;;19.50;9.63;;;;;;;10.04;59.26;102148.75;1904850;75;21036;-62
2021/11/15 12:07:39;;;;;;;20.95;9.38;;;;;;;9.66;60.11;102138.73;1904310;75;21208;-62
2021/11/15 12:10:14;;;;;;;31.55;13.80;;;;;;;9.40;60.64;102136.44;1904832;75;21039;-62
2021/11/15 12:12:57;;;;;;;24.75;10.63;;;;;;;9.12;61.31;102154.28;1904726;75;21039;-62
2021/11/15 12:15:32;;;;;;;24.35;10.85;;;;;;;9.01;61.65;102151.76;1904722;75;21031;-62
2021/11/15 12:18:25;;;;;;;33.15;13.03;;;;;;;8.93;61.85;102161.45;1904719;75;21040;-62
2021/11/15 12:21:21;;;;;;;19.95;11.03;;;;;;;8.88;62.02;102158.44;1904897;75;21109;-62
2021/11/15 12:23:54;;;;;;;39.40;12.88;;;;;;;8.77;62.18;102168.63;1904823;75;21113;-61
2021/11/15 12:26:26;;;;;;;34.30;12.70;;;;;;;8.58;62.44;102175.78;1904825;75;21132;-62
2021/11/15 12:29:02;;;;;;;26.15;11.18;;;;;;;8.43;62.67;102185.52;1902946;75;21043;-62
2021/11/15 12:31:45;;;;;;;26.85;11.53;;;;;;;8.34;62.90;102196.45;1904632;75;21027;-62
2021/11/15 12:34:15;;;;;;;28.20;12.50;;;;;;;8.24;63.03;102194.34;1904944;75;21031;-61
2021/11/15 12:36:49;;;;;;;27.62;12.68;;;;;;;8.12;63.28;102192.22;1904975;75;21008;-61
2021/11/15 12:39:23;;;;;;;38.73;18.03;;;;;;;8.05;63.51;102186.58;1905174;75;21682;-61
2021/11/15 12:41:54;;;;;;;26.00;11.15;;;;;;;7.98;63.70;102186.17;1905665;74;21380;-62
2021/11/15 12:44:27;;;;;;;32.03;11.85;;;;;;;7.93;63.82;102187.97;1917876;75;21034;-62
2021/11/15 12:47:02;;;;;;;27.52;12.07;;;;;;;7.87;63.96;102184.91;1918059;75;21007;-62
2021/11/15 12:49:45;;;;;;;24.90;10.68;;;;;;;7.81;64.10;102185.39;1917896;75;21027;-61
2021/11/15 12:52:16;;;;;;;120.95;38.00;;;;;;;7.67;64.45;102182.40;1917929;75;21035;-62